Minerva Zen — SVBN3 — position and weather

sailwx.info

Track history (hours):
 
Tides and Currents Weather Stations Pressure Air Temp Water Temp Dewpoint Dewpoint Depression Visibility Wind Speed Wind Dir Waves Ship Positions

Minerva Zen

Last reported at 2017-Apr-30 05:38 UTC. Time now 2017-May-01 02:34 UTC.
Position N 39°60' E 025°47'.

Length 183 m; draft 7.5 m.

Type: Ship. MMSI: 241190000.

Date/timePositionNaut miles runAvg speedWind from/ knotsBaromVisibWave heightAir tempDewpointWater temp
2017-Apr-30 05:38N 39°60' E 025°47'0 0.8
2017-Apr-30 05:28N 39°60' E 025°47'2 4.9
2017-Apr-30 05:00N 39°57' E 025°46'3 6.4
2017-Apr-30 04:30N 39°54' E 025°45'5 9.9
2017-Apr-30 04:00N 39°50' E 025°44'612.0
2017-Apr-30 03:30N 39°44' E 025°42'5112.2
2017-Apr-29 23:20N 38°54' E 025°29'412.0
2017-Apr-29 23:00N 38°50' E 025°28'612.0
2017-Apr-29 22:31N 38°44' E 025°24'4311.5
2017-Apr-29 18:44N 38°02' E 025°35'1012.2
2017-Apr-29 17:52N 37°52' E 025°39'512.5
2017-Apr-29 17:31N 37°48' E 025°41'612.1
2017-Apr-29 17:00N 37°42' E 025°44'612.6
2017-Apr-29 16:30N 37°36' E 025°47'612.8
2017-Apr-29 16:00N 37°30' E 025°50'27112.2
2017-Apr-28 17:47N 35°03' E 030°32'413.1
2017-Apr-28 17:30N 35°01' E 030°36'612.7
2017-Apr-28 17:00N 34°59' E 030°44'612.5
2017-Apr-28 16:30N 34°57' E 030°51'612.4
2017-Apr-28 16:00N 34°55' E 030°58'2812.8
2017-Apr-28 13:49N 34°47' E 031°31'613.1
2017-Apr-28 13:22N 34°45' E 031°37'913.0
2017-Apr-28 12:42N 34°42' E 031°47'513.3
2017-Apr-28 12:21N 34°41' E 031°53'513.0
2017-Apr-28 11:59N 34°40' E 031°58'1012.7
2017-Apr-28 11:12N 34°37' E 032°10'212.9
2017-Apr-28 11:00N 34°36' E 032°13'612.8
2017-Apr-28 10:30N 34°34' E 032°20'6711.9
2017-Apr-28 04:55N 34°45' E 033°40'512.5
2017-Apr-28 04:30N 34°49' E 033°44'611.4
2017-Apr-28 03:59N 34°54' E 033°42'2 0.1
2017-Apr-26 22:25N 34°56' E 033°41'0 0.0
2017-Apr-26 10:25N 34°56' E 033°41'0 0.0
2017-Apr-26 09:58N 34°56' E 033°41'0 0.0
2017-Apr-25 23:43N 34°56' E 033°41'0 0.0
2017-Apr-25 21:52N 34°56' E 033°41'  
2017-Apr-23 10:13N 34°56' E 033°41'15 1.6
2017-Apr-23 00:50N 34°41' E 033°36'3 7.6
2017-Apr-23 00:27N 34°39' E 033°34'4 7.4
2017-Apr-22 23:58N 34°37' E 033°30'4 7.7
2017-Apr-22 23:30N 34°35' E 033°27'4 7.9
2017-Apr-22 23:00N 34°32' E 033°23'1 1.6
2017-Apr-22 22:30N 34°32' E 033°24'0 0.6
2017-Apr-22 22:00N 34°32' E 033°25'1 1.6
2017-Apr-22 21:31N 34°31' E 033°25'1 1.3
2017-Apr-22 21:01N 34°31' E 033°24'1 0.9
2017-Apr-22 20:22N 34°31' E 033°23'0 0.7
2017-Apr-22 20:00N 34°31' E 033°23'0 0.5
2017-Apr-22 19:30N 34°31' E 033°23'0 0.4
2017-Apr-22 19:01N 34°32' E 033°22'0 0.2
2017-Apr-22 18:31N 34°32' E 033°22'0 0.1
2017-Apr-22 18:01N 34°32' E 033°22'0 0.2
2017-Apr-22 17:31N 34°32' E 033°22'1 1.9
2017-Apr-22 17:01N 34°32' E 033°21'2 4.2
2017-Apr-22 16:30N 34°33' E 033°19'2 4.0
2017-Apr-22 16:00N 34°34' E 033°17'0 0.5
2017-Apr-22 15:05N 34°34' E 033°16'0 0.8
2017-Apr-22 14:52N 34°34' E 033°16'0 0.8
2017-Apr-22 14:29N 34°33' E 033°17'1 0.9
2017-Apr-22 13:30N 34°33' E 033°18'1 1.0
2017-Apr-22 12:58N 34°33' E 033°18'1 1.0
2017-Apr-22 12:24N 34°33' E 033°19'0 1.0
2017-Apr-22 11:58N 34°33' E 033°19'0 0.9
2017-Apr-22 11:30N 34°32' E 033°20'0 0.9
2017-Apr-22 11:00N 34°32' E 033°20'0 0.9
2017-Apr-22 10:30N 34°32' E 033°21'0 0.9
2017-Apr-22 10:01N 34°32' E 033°21'0 0.8
2017-Apr-22 09:30N 34°32' E 033°22'1 1.0
2017-Apr-22 09:00N 34°32' E 033°23'1 1.7
2017-Apr-22 08:30N 34°31' E 033°23'2 3.3
2017-Apr-22 08:01N 34°30' E 033°23'2 3.6
2017-Apr-22 07:30N 34°29' E 033°21'2 3.7
2017-Apr-22 07:00N 34°28' E 033°19'1 2.1
2017-Apr-22 06:30N 34°28' E 033°18'0 0.8
2017-Apr-22 06:00N 34°28' E 033°19'0 0.8
2017-Apr-22 05:31N 34°28' E 033°19'0 0.8
2017-Apr-22 05:00N 34°28' E 033°19'0 0.8
2017-Apr-22 04:31N 34°28' E 033°20'0 0.8
2017-Apr-22 04:00N 34°29' E 033°20'0 0.8
2017-Apr-22 03:30N 34°29' E 033°21'0 0.7
2017-Apr-22 03:00N 34°29' E 033°21'0 0.6
2017-Apr-22 02:30N 34°29' E 033°21'0 0.5
2017-Apr-22 02:00N 34°30' E 033°22'0 0.5
2017-Apr-22 01:31N 34°30' E 033°22'0 0.4
2017-Apr-22 01:00N 34°30' E 033°22'0 0.4
2017-Apr-22 00:24N 34°30' E 033°22'0 0.4
2017-Apr-21 23:59N 34°30' E 033°22'0 0.4
2017-Apr-21 23:29N 34°30' E 033°22'0 0.4
2017-Apr-21 23:00N 34°30' E 033°23'0 0.4
2017-Apr-21 22:28N 34°31' E 033°23'0 0.3
2017-Apr-21 21:55N 34°31' E 033°23'0 0.3
2017-Apr-21 21:30N 34°31' E 033°23'0 0.3
2017-Apr-21 21:00N 34°31' E 033°23'0 0.3
2017-Apr-21 20:30N 34°31' E 033°23'0 0.4
2017-Apr-21 20:00N 34°31' E 033°24'0 0.4
2017-Apr-21 19:30N 34°31' E 033°24'0 0.4
2017-Apr-21 19:01N 34°31' E 033°24'0 0.4
2017-Apr-21 18:30N 34°31' E 033°24'0 0.3
2017-Apr-21 18:00N 34°31' E 033°25'0 0.3
2017-Apr-21 17:30N 34°31' E 033°25'0 0.2
2017-Apr-21 16:42N 34°31' E 033°25'0 0.5
2017-Apr-21 16:31N 34°31' E 033°25'1 1.6
2017-Apr-21 16:00N 34°32' E 033°25'3 5.3
2017-Apr-21 15:31N 34°33' E 033°28'0 0.9
2017-Apr-21 15:01N 34°32' E 033°28'2 4.9
2017-Apr-21 14:30N 34°32' E 033°25'5 4.9
2017-Apr-21 13:29N 34°31' E 033°19'2 5.0
2017-Apr-21 13:00N 34°30' E 033°16'3 6.4
2017-Apr-21 12:31N 34°29' E 033°13'5 9.4
2017-Apr-21 12:00N 34°27' E 033°07'5 9.2
2017-Apr-21 11:30N 34°26' E 033°02'5 9.2
2017-Apr-21 11:00N 34°26' E 032°56'5 9.2
2017-Apr-21 10:30N 34°27' E 032°51'5 9.1
2017-Apr-21 10:00N 34°27' E 032°45'5 9.0
2017-Apr-21 09:30N 34°27' E 032°40'4 8.7
2017-Apr-21 09:00N 34°28' E 032°35'4 8.6
2017-Apr-21 08:31N 34°30' E 032°30'4 8.9
2017-Apr-21 08:00N 34°31' E 032°25'4 8.6
2017-Apr-21 07:30N 34°32' E 032°20'2 3.5
2017-Apr-21 07:00N 34°32' E 032°17'3 6.4
2017-Apr-21 06:28N 34°33' E 032°14'4 8.5
2017-Apr-21 05:59N 34°35' E 032°09'9 8.6
2017-Apr-21 04:54N 34°38' E 031°58'14 8.9
2017-Apr-21 03:20N 34°42' E 031°42'8 9.1
2017-Apr-21 02:30N 34°44' E 031°33'2510.9
2017-Apr-21 00:14N 34°52' E 031°04'412.2
2017-Apr-20 23:53N 34°53' E 030°59'512.4
2017-Apr-20 23:30N 34°54' E 030°54'712.3
2017-Apr-20 22:54N 34°56' E 030°45'912.2
2017-Apr-20 22:11N 34°59' E 030°35'10112.3
2017-Apr-20 14:00N 35°30' E 028°37'  
Track history (hours):
 
Tides and Currents Weather Stations Pressure Air Temp Water Temp Dewpoint Dewpoint Depression Visibility Wind Speed Wind Dir Waves Ship Positions

Minerva Zen

Last reported at 2017-Apr-30 05:38 UTC. Time now 2017-May-01 02:34 UTC.
Position N 39°60' E 025°47'.

Length 183 m; draft 7.5 m.

Type: Ship. MMSI: 241190000.

Date/timePositionNaut miles runAvg speedWind from/ knotsBaromVisibWave heightAir tempDewpointWater temp
2017-Apr-30 05:38N 39°60' E 025°47'0 0.8
2017-Apr-30 05:28N 39°60' E 025°47'2 4.9
2017-Apr-30 05:00N 39°57' E 025°46'3 6.4
2017-Apr-30 04:30N 39°54' E 025°45'5 9.9
2017-Apr-30 04:00N 39°50' E 025°44'612.0
2017-Apr-30 03:30N 39°44' E 025°42'5112.2
2017-Apr-29 23:20N 38°54' E 025°29'412.0
2017-Apr-29 23:00N 38°50' E 025°28'612.0
2017-Apr-29 22:31N 38°44' E 025°24'4311.5
2017-Apr-29 18:44N 38°02' E 025°35'1012.2
2017-Apr-29 17:52N 37°52' E 025°39'512.5
2017-Apr-29 17:31N 37°48' E 025°41'612.1
2017-Apr-29 17:00N 37°42' E 025°44'612.6
2017-Apr-29 16:30N 37°36' E 025°47'612.8
2017-Apr-29 16:00N 37°30' E 025°50'27112.2
2017-Apr-28 17:47N 35°03' E 030°32'413.1
2017-Apr-28 17:30N 35°01' E 030°36'612.7
2017-Apr-28 17:00N 34°59' E 030°44'612.5
2017-Apr-28 16:30N 34°57' E 030°51'612.4
2017-Apr-28 16:00N 34°55' E 030°58'2812.8
2017-Apr-28 13:49N 34°47' E 031°31'613.1
2017-Apr-28 13:22N 34°45' E 031°37'913.0
2017-Apr-28 12:42N 34°42' E 031°47'513.3
2017-Apr-28 12:21N 34°41' E 031°53'513.0
2017-Apr-28 11:59N 34°40' E 031°58'1012.7
2017-Apr-28 11:12N 34°37' E 032°10'212.9
2017-Apr-28 11:00N 34°36' E 032°13'612.8
2017-Apr-28 10:30N 34°34' E 032°20'6711.9
2017-Apr-28 04:55N 34°45' E 033°40'512.5
2017-Apr-28 04:30N 34°49' E 033°44'611.4
2017-Apr-28 03:59N 34°54' E 033°42'2 0.1
2017-Apr-26 22:25N 34°56' E 033°41'0 0.0
2017-Apr-26 10:25N 34°56' E 033°41'0 0.0
2017-Apr-26 09:58N 34°56' E 033°41'0 0.0
2017-Apr-25 23:43N 34°56' E 033°41'0 0.0
2017-Apr-25 21:52N 34°56' E 033°41'  
2017-Apr-23 10:13N 34°56' E 033°41'15 1.6
2017-Apr-23 00:50N 34°41' E 033°36'3 7.6
2017-Apr-23 00:27N 34°39' E 033°34'4 7.4
2017-Apr-22 23:58N 34°37' E 033°30'4 7.7
2017-Apr-22 23:30N 34°35' E 033°27'4 7.9
2017-Apr-22 23:00N 34°32' E 033°23'1 1.6
2017-Apr-22 22:30N 34°32' E 033°24'0 0.6
2017-Apr-22 22:00N 34°32' E 033°25'1 1.6
2017-Apr-22 21:31N 34°31' E 033°25'1 1.3
2017-Apr-22 21:01N 34°31' E 033°24'1 0.9
2017-Apr-22 20:22N 34°31' E 033°23'0 0.7
2017-Apr-22 20:00N 34°31' E 033°23'0 0.5
2017-Apr-22 19:30N 34°31' E 033°23'0 0.4
2017-Apr-22 19:01N 34°32' E 033°22'0 0.2
2017-Apr-22 18:31N 34°32' E 033°22'0 0.1
2017-Apr-22 18:01N 34°32' E 033°22'0 0.2
2017-Apr-22 17:31N 34°32' E 033°22'1 1.9
2017-Apr-22 17:01N 34°32' E 033°21'2 4.2
2017-Apr-22 16:30N 34°33' E 033°19'2 4.0
2017-Apr-22 16:00N 34°34' E 033°17'0 0.5
2017-Apr-22 15:05N 34°34' E 033°16'0 0.8
2017-Apr-22 14:52N 34°34' E 033°16'0 0.8
2017-Apr-22 14:29N 34°33' E 033°17'1 0.9
2017-Apr-22 13:30N 34°33' E 033°18'1 1.0
2017-Apr-22 12:58N 34°33' E 033°18'1 1.0
2017-Apr-22 12:24N 34°33' E 033°19'0 1.0
2017-Apr-22 11:58N 34°33' E 033°19'0 0.9
2017-Apr-22 11:30N 34°32' E 033°20'0 0.9
2017-Apr-22 11:00N 34°32' E 033°20'0 0.9
2017-Apr-22 10:30N 34°32' E 033°21'0 0.9
2017-Apr-22 10:01N 34°32' E 033°21'0 0.8
2017-Apr-22 09:30N 34°32' E 033°22'1 1.0
2017-Apr-22 09:00N 34°32' E 033°23'1 1.7
2017-Apr-22 08:30N 34°31' E 033°23'2 3.3
2017-Apr-22 08:01N 34°30' E 033°23'2 3.6
2017-Apr-22 07:30N 34°29' E 033°21'2 3.7
2017-Apr-22 07:00N 34°28' E 033°19'1 2.1
2017-Apr-22 06:30N 34°28' E 033°18'0 0.8
2017-Apr-22 06:00N 34°28' E 033°19'0 0.8
2017-Apr-22 05:31N 34°28' E 033°19'0 0.8
2017-Apr-22 05:00N 34°28' E 033°19'0 0.8
2017-Apr-22 04:31N 34°28' E 033°20'0 0.8
2017-Apr-22 04:00N 34°29' E 033°20'0 0.8
2017-Apr-22 03:30N 34°29' E 033°21'0 0.7
2017-Apr-22 03:00N 34°29' E 033°21'0 0.6
2017-Apr-22 02:30N 34°29' E 033°21'0 0.5
2017-Apr-22 02:00N 34°30' E 033°22'0 0.5
2017-Apr-22 01:31N 34°30' E 033°22'0 0.4
2017-Apr-22 01:00N 34°30' E 033°22'0 0.4
2017-Apr-22 00:24N 34°30' E 033°22'0 0.4
2017-Apr-21 23:59N 34°30' E 033°22'0 0.4
2017-Apr-21 23:29N 34°30' E 033°22'0 0.4
2017-Apr-21 23:00N 34°30' E 033°23'0 0.4
2017-Apr-21 22:28N 34°31' E 033°23'0 0.3
2017-Apr-21 21:55N 34°31' E 033°23'0 0.3
2017-Apr-21 21:30N 34°31' E 033°23'0 0.3
2017-Apr-21 21:00N 34°31' E 033°23'0 0.3
2017-Apr-21 20:30N 34°31' E 033°23'0 0.4
2017-Apr-21 20:00N 34°31' E 033°24'0 0.4
2017-Apr-21 19:30N 34°31' E 033°24'0 0.4
2017-Apr-21 19:01N 34°31' E 033°24'0 0.4
2017-Apr-21 18:30N 34°31' E 033°24'0 0.3
2017-Apr-21 18:00N 34°31' E 033°25'0 0.3
2017-Apr-21 17:30N 34°31' E 033°25'0 0.2
2017-Apr-21 16:42N 34°31' E 033°25'0 0.5
2017-Apr-21 16:31N 34°31' E 033°25'1 1.6
2017-Apr-21 16:00N 34°32' E 033°25'3 5.3
2017-Apr-21 15:31N 34°33' E 033°28'0 0.9
2017-Apr-21 15:01N 34°32' E 033°28'2 4.9
2017-Apr-21 14:30N 34°32' E 033°25'5 4.9
2017-Apr-21 13:29N 34°31' E 033°19'2 5.0
2017-Apr-21 13:00N 34°30' E 033°16'3 6.4
2017-Apr-21 12:31N 34°29' E 033°13'5 9.4
2017-Apr-21 12:00N 34°27' E 033°07'5 9.2
2017-Apr-21 11:30N 34°26' E 033°02'5 9.2
2017-Apr-21 11:00N 34°26' E 032°56'5 9.2
2017-Apr-21 10:30N 34°27' E 032°51'5 9.1
2017-Apr-21 10:00N 34°27' E 032°45'5 9.0
2017-Apr-21 09:30N 34°27' E 032°40'4 8.7
2017-Apr-21 09:00N 34°28' E 032°35'4 8.6
2017-Apr-21 08:31N 34°30' E 032°30'4 8.9
2017-Apr-21 08:00N 34°31' E 032°25'4 8.6
2017-Apr-21 07:30N 34°32' E 032°20'2 3.5
2017-Apr-21 07:00N 34°32' E 032°17'3 6.4
2017-Apr-21 06:28N 34°33' E 032°14'4 8.5
2017-Apr-21 05:59N 34°35' E 032°09'9 8.6
2017-Apr-21 04:54N 34°38' E 031°58'14 8.9
2017-Apr-21 03:20N 34°42' E 031°42'8 9.1
2017-Apr-21 02:30N 34°44' E 031°33'2510.9
2017-Apr-21 00:14N 34°52' E 031°04'412.2
2017-Apr-20 23:53N 34°53' E 030°59'512.4
2017-Apr-20 23:30N 34°54' E 030°54'712.3
2017-Apr-20 22:54N 34°56' E 030°45'912.2
2017-Apr-20 22:11N 34°59' E 030°35'10112.3
2017-Apr-20 14:00N 35°30' E 028°37'  

Dump ship's entire track history